Time;durP1;ratioP1;P1;durP2;ratioP2;P2;SDS_P1;SDS_P2;PMS_P1;PMS_P2;Temp;Humidity;BMP_temperature;BMP_pressure;BME280_temperature;BME280_humidity;BME280_pressure;Samples;Min_cycle;Max_cycle;Signal;HPM_P1;HPM_P2
2021/04/24 00:01:06;;;;;;;14.73;6.00;;;6.00;93.20;;;;;;4957348;28;20198;-83
2021/04/24 00:03:34;;;;;;;17.20;6.23;;;6.00;93.70;;;;;;4957533;28;20268;-83
2021/04/24 00:06:00;;;;;;;10.17;5.67;;;5.90;93.80;;;;;;4957459;28;20505;-82
2021/04/24 00:08:25;;;;;;;13.27;6.17;;;5.90;93.90;;;;;;4957747;28;20418;-83
2021/04/24 00:10:51;;;;;;;13.47;6.03;;;5.80;94.10;;;;;;4958506;28;20652;-82
2021/04/24 00:13:17;;;;;;;15.03;6.13;;;5.80;94.30;;;;;;4959185;28;20178;-83
2021/04/24 00:15:43;;;;;;;13.03;5.93;;;5.70;94.20;;;;;;4959206;28;20421;-85
2021/04/24 00:18:10;;;;;;;16.40;6.73;;;5.60;94.30;;;;;;4959397;28;20185;-85
2021/04/24 00:20:36;;;;;;;16.43;6.27;;;5.60;94.50;;;;;;4976183;28;20402;-85
2021/04/24 00:23:02;;;;;;;13.13;6.70;;;5.50;94.60;;;;;;4958888;28;20429;-85
2021/04/24 00:25:28;;;;;;;14.37;6.33;;;5.50;94.80;;;;;;4957869;28;20898;-85
2021/04/24 00:27:53;;;;;;;14.23;5.63;;;5.40;95.00;;;;;;4959100;28;20410;-86
2021/04/24 00:30:19;;;;;;;15.23;5.60;;;5.40;95.10;;;;;;4958087;28;20547;-85
2021/04/24 00:32:46;;;;;;;10.20;5.53;;;5.40;95.10;;;;;;4957506;28;20289;-85
2021/04/24 00:35:13;;;;;;;18.83;6.90;;;5.30;95.30;;;;;;4975469;28;20540;-85
2021/04/24 00:37:38;;;;;;;13.07;5.83;;;5.20;95.40;;;;;;4974920;28;20414;-86
2021/04/24 00:40:06;;;;;;;9.27;5.17;;;5.20;95.50;;;;;;4956783;28;21016;-85
2021/04/24 00:42:31;;;;;;;11.00;5.80;;;5.20;95.60;;;;;;4957518;28;20202;-85
2021/04/24 00:44:57;;;;;;;14.43;5.17;;;5.10;95.90;;;;;;4960153;28;21048;-85
2021/04/24 00:47:24;;;;;;;8.00;4.67;;;5.10;96.00;;;;;;4960627;28;20566;-85
2021/04/24 00:49:51;;;;;;;14.63;5.80;;;5.10;96.00;;;;;;4977908;28;20171;-86
2021/04/24 00:52:17;;;;;;;21.93;6.07;;;5.00;96.10;;;;;;4960097;28;20874;-85
2021/04/24 00:54:43;;;;;;;10.33;5.53;;;5.00;96.30;;;;;;4960458;28;20413;-85
2021/04/24 00:57:10;;;;;;;11.90;6.27;;;5.00;96.30;;;;;;4960556;28;20933;-85
2021/04/24 00:59:39;;;;;;;15.07;5.50;;;5.00;96.40;;;;;;4978018;28;20205;-85
2021/04/24 01:02:06;;;;;;;10.57;5.27;;;5.00;96.40;;;;;;4960877;28;20880;-85
2021/04/24 01:04:32;;;;;;;12.20;5.30;;;4.90;96.60;;;;;;4960925;28;20470;-85
2021/04/24 01:06:58;;;;;;;13.97;5.87;;;4.90;96.70;;;;;;4978178;28;20414;-85
2021/04/24 01:09:25;;;;;;;14.53;5.23;;;4.90;96.90;;;;;;4961108;28;20422;-86
2021/04/24 01:11:50;;;;;;;18.40;5.57;;;4.80;96.90;;;;;;4960119;28;20434;-86
2021/04/24 01:14:16;;;;;;;14.23;5.43;;;4.80;97.00;;;;;;4959438;28;20472;-85
2021/04/24 01:16:42;;;;;;;10.00;5.23;;;4.70;97.00;;;;;;4960167;28;20182;-86
2021/04/24 01:19:11;;;;;;;6.77;4.47;;;4.70;97.10;;;;;;4959498;28;20773;-85
2021/04/24 01:21:38;;;;;;;11.70;4.93;;;4.70;97.20;;;;;;4959669;28;20811;-85
2021/04/24 01:24:05;;;;;;;16.60;5.50;;;4.70;97.20;;;;;;4959417;28;20450;-86
2021/04/24 01:26:31;;;;;;;17.90;5.23;;;4.60;97.30;;;;;;4959338;28;20465;-86
2021/04/24 01:28:57;;;;;;;11.33;5.07;;;4.60;97.30;;;;;;4961864;28;20933;-85
2021/04/24 01:31:22;;;;;;;7.77;5.30;;;4.60;97.30;;;;;;4980719;28;20250;-85
2021/04/24 01:33:48;;;;;;;11.23;4.77;;;4.50;97.30;;;;;;4980838;28;20179;-86
2021/04/24 01:36:14;;;;;;;17.93;5.00;;;4.50;97.30;;;;;;4962965;28;20245;-83
2021/04/24 01:38:39;;;;;;;12.53;5.03;;;4.40;97.30;;;;;;4963250;28;20683;-85
2021/04/24 01:41:07;;;;;;;8.80;4.93;;;4.40;97.30;;;;;;4964369;28;20212;-87
2021/04/24 01:43:35;;;;;;;16.10;4.80;;;4.30;97.30;;;;;;4961052;28;20205;-85
2021/04/24 01:46:01;;;;;;;14.17;5.00;;;4.30;97.30;;;;;;4960729;28;20453;-86
2021/04/24 01:48:27;;;;;;;11.20;4.93;;;4.30;97.30;;;;;;4960536;28;20422;-85
2021/04/24 01:50:55;;;;;;;15.53;4.87;;;4.30;97.30;;;;;;4961685;28;20932;-86
2021/04/24 01:53:25;;;;;;;16.57;5.07;;;4.30;97.30;;;;;;4960784;28;20174;-85
2021/04/24 01:55:51;;;;;;;10.30;4.50;;;4.30;97.30;;;;;;4960014;28;20822;-85
2021/04/24 01:58:20;;;;;;;11.13;4.57;;;4.20;97.30;;;;;;4960092;28;20895;-85
2021/04/24 02:00:55;;;;;;;12.70;4.80;;;4.20;97.30;;;;;;4960159;28;20461;-86
2021/04/24 02:03:22;;;;;;;15.33;5.27;;;4.10;97.30;;;;;;4959030;28;20437;-85
2021/04/24 02:05:48;;;;;;;8.37;4.30;;;4.10;97.30;;;;;;4959012;28;20418;-85
2021/04/24 02:08:30;;;;;;;9.80;4.90;;;4.10;97.30;;;;;;4977507;28;20438;-86
2021/04/24 02:10:56;;;;;;;13.67;4.40;;;4.00;97.30;;;;;;4959222;28;20523;-82
2021/04/24 02:13:26;;;;;;;14.30;4.90;;;3.90;97.30;;;;;;4959653;28;20897;-83
2021/04/24 02:15:52;;;;;;;9.07;5.30;;;3.90;97.30;;;;;;4960070;28;20646;-83
2021/04/24 02:18:18;;;;;;;11.17;4.93;;;3.90;97.30;;;;;;4959766;28;20469;-82
2021/04/24 02:20:44;;;;;;;11.80;4.70;;;3.90;97.30;;;;;;4959567;28;20178;-81
2021/04/24 02:23:11;;;;;;;14.63;4.90;;;3.90;97.30;;;;;;4959010;28;20185;-83
2021/04/24 02:25:37;;;;;;;15.77;5.30;;;3.90;97.30;;;;;;4959106;28;20450;-82
2021/04/24 02:28:03;;;;;;;8.87;4.80;;;3.90;97.30;;;;;;4958677;28;20453;-83
2021/04/24 02:30:29;;;;;;;9.73;5.17;;;3.90;97.30;;;;;;4958702;28;20174;-84
2021/04/24 02:32:55;;;;;;;15.00;5.40;;;3.90;97.30;;;;;;4958507;28;20441;-84
2021/04/24 02:35:38;;;;;;;10.50;4.77;;;3.90;97.30;;;;;;4975907;28;20186;-84
2021/04/24 02:38:04;;;;;;;12.13;5.13;;;3.80;97.30;;;;;;4985360;28;20649;-84
2021/04/24 02:40:30;;;;;;;9.60;4.10;;;3.80;97.30;;;;;;4978285;28;20474;-84
2021/04/24 02:42:58;;;;;;;14.57;5.00;;;3.80;97.30;;;;;;4978892;28;20309;-84
2021/04/24 02:45:24;;;;;;;12.63;4.60;;;3.80;97.30;;;;;;4978408;28;20198;-84
2021/04/24 02:47:49;;;;;;;11.53;5.00;;;3.70;97.30;;;;;;4982553;28;20418;-84
2021/04/24 02:50:18;;;;;;;12.87;5.50;;;3.70;97.30;;;;;;4959131;28;20170;-83
2021/04/24 02:52:44;;;;;;;10.60;5.10;;;3.60;97.30;;;;;;4975763;28;20565;-84
2021/04/24 02:55:12;;;;;;;13.43;5.50;;;3.60;97.30;;;;;;4958310;28;20484;-84
2021/04/24 02:57:37;;;;;;;13.57;6.83;;;3.60;97.30;;;;;;4959102;28;20422;-84
2021/04/24 03:00:06;;;;;;;20.13;5.47;;;3.50;97.30;;;;;;4959436;28;20442;-84
2021/04/24 03:02:32;;;;;;;12.10;5.73;;;3.50;97.30;;;;;;4976152;28;20229;-84
2021/04/24 03:04:57;;;;;;;13.20;5.03;;;3.50;97.30;;;;;;4958522;28;20992;-83
2021/04/24 03:07:23;;;;;;;16.63;5.30;;;3.40;97.30;;;;;;4958455;28;20469;-83
2021/04/24 03:09:49;;;;;;;10.80;5.40;;;3.40;97.30;;;;;;4958024;28;20557;-83
2021/04/24 03:12:14;;;;;;;15.40;5.70;;;3.30;97.30;;;;;;4975683;28;20288;-83
2021/04/24 03:14:40;;;;;;;12.57;6.43;;;3.30;97.30;;;;;;4959584;28;20189;-84
2021/04/24 03:17:06;;;;;;;10.67;4.80;;;3.30;97.30;;;;;;4958315;28;20645;-84
2021/04/24 03:19:31;;;;;;;10.50;5.27;;;3.30;97.30;;;;;;4958224;28;20186;-84
2021/04/24 03:21:57;;;;;;;13.67;5.63;;;3.30;97.30;;;;;;4975510;28;20208;-84
2021/04/24 03:24:23;;;;;;;11.67;5.47;;;3.40;97.30;;;;;;4958257;28;20202;-84
2021/04/24 03:26:49;;;;;;;14.37;5.50;;;3.40;97.30;;;;;;4958527;28;20206;-84
2021/04/24 03:29:15;;;;;;;12.17;5.40;;;3.30;97.30;;;;;;4959919;28;20473;-83
2021/04/24 03:31:40;;;;;;;9.37;5.27;;;3.30;97.30;;;;;;4959866;28;20632;-84
2021/04/24 03:34:06;;;;;;;11.57;5.20;;;3.30;97.30;;;;;;4960005;28;20242;-84
2021/04/24 03:36:34;;;;;;;11.97;5.00;;;3.30;97.30;;;;;;4959832;28;20182;-84
2021/04/24 03:39:00;;;;;;;9.37;4.67;;;3.30;97.30;;;;;;4960612;28;20273;-84
2021/04/24 03:41:25;;;;;;;12.20;4.90;;;3.30;97.30;;;;;;4958577;28;20474;-84
2021/04/24 03:43:51;;;;;;;13.47;5.57;;;3.30;97.30;;;;;;4958756;28;20620;-84
2021/04/24 03:46:16;;;;;;;11.03;4.30;;;3.20;97.30;;;;;;4976597;28;20171;-84
2021/04/24 03:48:42;;;;;;;15.83;5.23;;;3.20;97.30;;;;;;4976377;28;20181;-84
2021/04/24 03:51:08;;;;;;;15.03;5.83;;;3.20;97.30;;;;;;4958652;28;20612;-84
2021/04/24 03:53:33;;;;;;;14.33;5.70;;;3.20;97.30;;;;;;4960151;28;20217;-84
2021/04/24 03:55:59;;;;;;;11.50;5.50;;;3.20;97.30;;;;;;4958697;28;20185;-83
2021/04/24 03:58:24;;;;;;;12.07;5.77;;;3.20;97.30;;;;;;4957449;28;20646;-84
2021/04/24 04:00:50;;;;;;;10.70;5.07;;;3.20;97.30;;;;;;4974409;28;20180;-84
2021/04/24 04:03:16;;;;;;;12.60;5.07;;;3.20;97.30;;;;;;4957599;28;20197;-84
2021/04/24 04:05:44;;;;;;;15.87;6.33;;;3.10;97.30;;;;;;4957598;28;20178;-84
2021/04/24 04:08:12;;;;;;;12.30;4.60;;;3.10;97.30;;;;;;4957547;28;20543;-84
2021/04/24 04:10:39;;;;;;;18.33;6.00;;;3.10;97.30;;;;;;4974901;28;20516;-83
2021/04/24 04:13:06;;;;;;;16.83;5.33;;;3.00;97.30;;;;;;4957564;28;20509;-84
2021/04/24 04:15:32;;;;;;;19.73;6.27;;;3.00;97.30;;;;;;4958211;28;20421;-84
2021/04/24 04:18:12;;;;;;;14.70;5.80;;;3.10;97.30;;;;;;4961412;28;20496;-84
2021/04/24 04:20:52;;;;;;;11.23;4.70;;;3.10;97.30;;;;;;4962591;28;20414;-83
2021/04/24 04:23:19;;;;;;;13.27;5.10;;;3.10;97.30;;;;;;4962650;28;20410;-84
2021/04/24 04:25:45;;;;;;;14.07;6.40;;;3.20;97.30;;;;;;4962755;28;20414;-84
2021/04/24 04:28:12;;;;;;;11.97;5.97;;;3.30;97.30;;;;;;4962643;28;20425;-84
2021/04/24 04:30:39;;;;;;;12.50;5.27;;;3.30;97.30;;;;;;4963179;28;20451;-84
2021/04/24 04:33:07;;;;;;;10.90;5.87;;;3.30;97.30;;;;;;4961937;28;20426;-84
2021/04/24 04:35:34;;;;;;;13.30;6.13;;;3.40;97.30;;;;;;4961844;28;20928;-84
2021/04/24 04:38:00;;;;;;;21.83;5.97;;;3.40;97.30;;;;;;4962055;28;20436;-84
2021/04/24 04:40:26;;;;;;;17.33;5.53;;;3.40;97.30;;;;;;4962119;28;20486;-84
2021/04/24 04:42:51;;;;;;;13.50;5.63;;;3.50;97.30;;;;;;4961967;28;20198;-84
2021/04/24 04:45:19;;;;;;;12.50;5.50;;;3.60;97.30;;;;;;4962078;28;20198;-84
2021/04/24 04:47:45;;;;;;;11.23;4.93;;;3.60;97.30;;;;;;4961290;28;20182;-84
2021/04/24 04:50:15;;;;;;;13.13;5.33;;;3.70;97.30;;;;;;4960849;28;20429;-84
2021/04/24 04:52:41;;;;;;;13.30;5.40;;;3.80;97.30;;;;;;4960893;28;20426;-84
2021/04/24 04:55:08;;;;;;;14.43;5.47;;;3.80;97.30;;;;;;4960791;28;20541;-84
2021/04/24 04:57:34;;;;;;;10.37;4.90;;;3.90;97.30;;;;;;4978424;28;20418;-84
2021/04/24 04:59:59;;;;;;;13.20;5.87;;;3.90;97.30;;;;;;4978478;28;20417;-84
2021/04/24 05:02:25;;;;;;;17.60;6.93;;;4.00;97.30;;;;;;4977437;23;20541;-75
2021/04/24 05:04:51;;;;;;;13.70;5.73;;;4.00;97.30;;;;;;4954304;29;20262;-76
2021/04/24 05:07:16;;;;;;;15.30;6.37;;;4.00;97.30;;;;;;4937813;29;20269;-76
2021/04/24 05:09:42;;;;;;;13.47;5.83;;;4.00;97.30;;;;;;4955167;28;20174;-75
2021/04/24 05:12:08;;;;;;;13.87;5.70;;;4.10;97.30;;;;;;4937781;29;20198;-76
2021/04/24 05:14:35;;;;;;;15.27;5.70;;;4.10;97.30;;;;;;4953847;29;20179;-75
2021/04/24 05:17:03;;;;;;;12.33;6.00;;;4.10;97.30;;;;;;4953652;29;20783;-76
2021/04/24 05:19:29;;;;;;;13.80;5.30;;;4.10;97.30;;;;;;4953415;29;20429;-76
2021/04/24 05:21:54;;;;;;;16.37;6.37;;;4.20;97.30;;;;;;4937715;29;20439;-76
2021/04/24 05:24:20;;;;;;;13.77;6.03;;;4.20;97.30;;;;;;4953472;29;20242;-76
2021/04/24 05:26:46;;;;;;;16.40;6.43;;;4.30;97.30;;;;;;4953787;29;20176;-76
2021/04/24 05:29:11;;;;;;;14.57;5.23;;;4.30;97.30;;;;;;4952664;28;20186;-76
2021/04/24 05:31:37;;;;;;;22.67;6.67;;;4.30;97.30;;;;;;4949262;29;20198;-77
2021/04/24 05:34:04;;;;;;;13.37;5.90;;;4.40;97.30;;;;;;4953054;28;20195;-76
2021/04/24 05:36:29;;;;;;;15.37;7.23;;;4.40;97.30;;;;;;4953457;29;20187;-76
2021/04/24 05:38:55;;;;;;;14.77;7.20;;;4.40;97.30;;;;;;4953376;29;20483;-76
2021/04/24 05:41:22;;;;;;;16.50;6.50;;;4.50;97.30;;;;;;4953285;29;20210;-76
2021/04/24 05:43:49;;;;;;;22.93;7.80;;;4.50;97.30;;;;;;4953348;29;20477;-76
2021/04/24 05:46:16;;;;;;;20.03;6.90;;;4.60;97.30;;;;;;4953105;29;20461;-76
2021/04/24 05:48:42;;;;;;;22.90;7.37;;;4.60;97.30;;;;;;4953070;29;20419;-76
2021/04/24 05:51:07;;;;;;;17.60;7.43;;;4.60;97.30;;;;;;4953192;29;20435;-76
2021/04/24 05:53:33;;;;;;;20.03;6.90;;;4.70;97.30;;;;;;4953170;29;20638;-76
2021/04/24 05:55:59;;;;;;;20.43;8.97;;;4.80;97.30;;;;;;4952938;29;20175;-76
2021/04/24 05:58:25;;;;;;;17.03;8.93;;;4.80;97.30;;;;;;4945714;29;20187;-77
2021/04/24 06:00:50;;;;;;;20.17;8.67;;;4.90;97.30;;;;;;4953366;29;20196;-77
2021/04/24 06:03:16;;;;;;;22.30;7.23;;;5.00;97.30;;;;;;4953499;29;20602;-76
2021/04/24 06:05:42;;;;;;;17.33;8.33;;;5.10;97.30;;;;;;4936616;29;20219;-77
2021/04/24 06:08:08;;;;;;;21.27;7.73;;;5.10;97.30;;;;;;4936526;29;20937;-76
2021/04/24 06:10:33;;;;;;;20.03;8.90;;;5.20;97.30;;;;;;4936692;29;20235;-77
2021/04/24 06:12:59;;;;;;;18.30;7.60;;;5.30;97.30;;;;;;4935993;29;20518;-76
2021/04/24 06:15:25;;;;;;;20.17;7.40;;;5.30;97.30;;;;;;4953860;29;20647;-74
2021/04/24 06:17:51;;;;;;;22.23;8.20;;;5.40;97.30;;;;;;4936084;29;20179;-76
2021/04/24 06:20:17;;;;;;;24.73;9.70;;;5.40;97.30;;;;;;4935971;29;20434;-75
2021/04/24 06:22:44;;;;;;;20.93;8.77;;;5.50;97.30;;;;;;4936666;29;20794;-74
2021/04/24 06:25:12;;;;;;;22.93;9.40;;;5.50;97.30;;;;;;4936525;29;20493;-74
2021/04/24 06:27:38;;;;;;;21.17;7.67;;;5.50;97.30;;;;;;4935519;29;20434;-76
2021/04/24 06:30:09;;;;;;;21.10;7.57;;;5.60;97.30;;;;;;4934917;29;20415;-76
2021/04/24 06:32:35;;;;;;;19.50;7.13;;;5.70;97.30;;;;;;4933480;29;20191;-77
2021/04/24 06:35:01;;;;;;;19.50;8.60;;;5.70;97.30;;;;;;4952364;29;20407;-76
2021/04/24 06:37:27;;;;;;;17.67;8.10;;;5.80;97.30;;;;;;4935357;29;20953;-76
2021/04/24 06:39:53;;;;;;;21.87;7.73;;;5.80;97.30;;;;;;4934920;29;20420;-77
2021/04/24 06:42:18;;;;;;;28.53;9.67;;;5.80;97.30;;;;;;4935007;29;20694;-76
2021/04/24 06:44:44;;;;;;;26.13;8.73;;;5.80;97.30;;;;;;4935163;29;20734;-77
2021/04/24 06:47:10;;;;;;;27.03;9.80;;;5.90;97.30;;;;;;4932570;29;20167;-77
2021/04/24 06:49:36;;;;;;;18.13;7.80;;;5.80;97.30;;;;;;4934916;29;20191;-77
2021/04/24 06:52:01;;;;;;;18.73;8.90;;;5.80;97.30;;;;;;4935010;29;21120;-76
2021/04/24 06:54:27;;;;;;;34.20;9.40;;;5.90;97.30;;;;;;4934640;29;20628;-76
2021/04/24 06:56:53;;;;;;;26.30;9.80;;;5.90;97.30;;;;;;4945960;29;20183;-76
2021/04/24 06:59:18;;;;;;;23.00;10.63;;;6.00;97.30;;;;;;4935335;29;20223;-76
2021/04/24 07:01:44;;;;;;;21.07;8.13;;;6.00;97.30;;;;;;4953321;29;20277;-76
2021/04/24 07:04:10;;;;;;;28.00;9.93;;;6.10;97.30;;;;;;4952452;29;20728;-77
2021/04/24 07:06:35;;;;;;;21.60;9.73;;;6.20;97.30;;;;;;4948750;29;20190;-74
2021/04/24 07:09:01;;;;;;;27.67;9.20;;;6.20;97.30;;;;;;4952061;29;20171;-75
2021/04/24 07:11:27;;;;;;;22.17;9.20;;;6.30;97.30;;;;;;4950933;29;20191;-76
2021/04/24 07:13:53;;;;;;;22.37;8.73;;;6.40;97.30;;;;;;4950145;29;20179;-76
2021/04/24 07:16:19;;;;;;;25.47;9.60;;;6.40;97.30;;;;;;4950192;29;20559;-75
2021/04/24 07:18:45;;;;;;;27.80;9.67;;;6.40;97.30;;;;;;4950039;29;20438;-77
2021/04/24 07:21:11;;;;;;;24.13;9.87;;;6.50;97.30;;;;;;4950270;29;20546;-77
2021/04/24 07:23:40;;;;;;;26.50;10.30;;;6.60;97.30;;;;;;4950730;29;20179;-77
2021/04/24 07:26:06;;;;;;;27.73;9.97;;;6.60;97.30;;;;;;4948129;29;20434;-76
2021/04/24 07:28:32;;;;;;;22.60;9.17;;;6.70;97.30;;;;;;4949888;29;20953;-76
2021/04/24 07:30:58;;;;;;;19.53;8.60;;;6.70;97.30;;;;;;4950227;29;20433;-76
2021/04/24 07:33:24;;;;;;;25.60;10.00;;;6.80;97.30;;;;;;4950397;29;20178;-75
2021/04/24 07:35:51;;;;;;;21.40;9.33;;;6.70;97.30;;;;;;4950181;29;20171;-76
2021/04/24 07:38:18;;;;;;;21.13;10.83;;;6.80;97.30;;;;;;4950128;29;20203;-75
2021/04/24 07:40:44;;;;;;;26.97;10.40;;;6.90;97.30;;;;;;4951797;29;20470;-76
2021/04/24 07:43:11;;;;;;;21.63;9.60;;;6.90;97.30;;;;;;4951156;29;20458;-76
2021/04/24 07:45:37;;;;;;;27.90;10.40;;;7.00;97.30;;;;;;4951314;29;20211;-76
2021/04/24 07:48:03;;;;;;;31.00;10.67;;;7.10;97.30;;;;;;4951222;29;20521;-76
2021/04/24 07:50:28;;;;;;;19.97;9.60;;;7.20;97.30;;;;;;4952609;28;20490;-75
2021/04/24 07:52:54;;;;;;;20.23;9.60;;;7.30;97.30;;;;;;4955917;28;20613;-75
2021/04/24 07:55:20;;;;;;;17.77;10.40;;;7.40;97.30;;;;;;4968649;28;20234;-74
2021/04/24 07:57:46;;;;;;;21.63;10.30;;;7.40;97.30;;;;;;4951881;29;20747;-74
2021/04/24 08:00:13;;;;;;;17.83;9.70;;;7.50;97.30;;;;;;4956241;28;20226;-76
2021/04/24 08:02:38;;;;;;;20.23;10.50;;;7.60;97.30;;;;;;4948625;28;20503;-76
2021/04/24 08:05:05;;;;;;;21.73;9.80;;;7.70;97.30;;;;;;4945105;28;20465;-76
2021/04/24 08:07:31;;;;;;;25.47;9.97;;;7.90;97.30;;;;;;4947549;28;20242;-77
2021/04/24 08:09:56;;;;;;;22.30;10.20;;;8.10;97.30;;;;;;4946645;28;20423;-75
2021/04/24 08:12:22;;;;;;;24.20;9.80;;;8.10;97.00;;;;;;4939752;29;20221;-76
2021/04/24 08:14:48;;;;;;;19.60;9.03;;;8.10;97.30;;;;;;4953477;28;20183;-76
2021/04/24 08:17:14;;;;;;;21.43;9.57;;;8.10;97.30;;;;;;4944750;28;20175;-76
2021/04/24 08:19:40;;;;;;;20.70;9.20;;;8.20;97.30;;;;;;4941810;28;20174;-78
2021/04/24 08:22:07;;;;;;;16.80;8.97;;;8.10;96.20;;;;;;4934493;28;20518;-77
2021/04/24 08:24:33;;;;;;;15.77;8.73;;;8.10;96.80;;;;;;4964295;28;20451;-77
2021/04/24 08:26:59;;;;;;;21.70;9.57;;;8.40;96.70;;;;;;4940679;29;20426;-77
2021/04/24 08:29:25;;;;;;;20.47;9.17;;;8.70;96.10;;;;;;4938396;29;20450;-77
2021/04/24 08:31:51;;;;;;;15.30;7.80;;;8.90;94.60;;;;;;4944518;28;20442;-77
2021/04/24 08:34:20;;;;;;;18.57;8.87;;;8.90;93.70;;;;;;4938407;29;20650;-77
2021/04/24 08:36:45;;;;;;;17.80;9.57;;;8.80;93.60;;;;;;4937813;29;20426;-79
2021/04/24 08:39:11;;;;;;;15.30;8.70;;;8.60;93.70;;;;;;4957835;29;20972;-78
2021/04/24 08:41:37;;;;;;;15.10;8.40;;;8.70;94.40;;;;;;4960739;29;20246;-80
2021/04/24 08:44:03;;;;;;;16.83;8.97;;;8.90;94.10;;;;;;4962754;29;20191;-80
2021/04/24 08:46:29;;;;;;;17.63;8.60;;;9.00;94.10;;;;;;4946781;29;20481;-81
2021/04/24 08:48:56;;;;;;;16.47;8.00;;;9.00;93.10;;;;;;4961801;28;20434;-81
2021/04/24 08:51:23;;;;;;;16.30;8.67;;;8.90;93.30;;;;;;4945810;29;20199;-81
2021/04/24 08:53:51;;;;;;;13.93;7.83;;;8.90;93.40;;;;;;4945685;29;20423;-81
2021/04/24 08:56:18;;;;;;;15.43;6.30;;;9.20;93.00;;;;;;4945711;29;20526;-81
2021/04/24 08:58:44;;;;;;;14.53;6.80;;;9.40;91.30;;;;;;4945815;29;20437;-81
2021/04/24 09:01:11;;;;;;;14.70;7.73;;;9.50;91.20;;;;;;4945803;29;20438;-79
2021/04/24 09:03:38;;;;;;;15.63;6.60;;;9.90;90.10;;;;;;4945434;29;20517;-82
2021/04/24 09:06:03;;;;;;;19.10;6.53;;;10.00;89.60;;;;;;4944310;29;20997;-81
2021/04/24 09:08:30;;;;;;;14.60;6.27;;;10.10;89.10;;;;;;4951362;29;20498;-81
2021/04/24 09:11:01;;;;;;;15.20;6.00;;;9.90;88.80;;;;;;4948649;28;20395;-78
2021/04/24 09:13:28;;;;;;;16.87;6.30;;;9.90;89.20;;;;;;4946893;29;20427;-80
2021/04/24 09:15:55;;;;;;;11.60;5.90;;;10.00;88.30;;;;;;4947831;29;20447;-80
2021/04/24 09:18:22;;;;;;;13.13;6.17;;;10.10;86.60;;;;;;4949081;29;20430;-81
2021/04/24 09:21:00;;;;;;;13.50;6.27;;;10.40;85.40;;;;;;4951376;29;20442;-81
2021/04/24 09:23:36;;;;;;;20.07;6.60;;;10.50;85.20;;;;;;4945673;29;20879;-81
2021/04/24 09:26:04;;;;;;;12.63;6.47;;;10.70;86.90;;;;;;4941971;29;20553;-78
2021/04/24 09:28:37;;;;;;;13.13;7.00;;;10.50;85.00;;;;;;4941762;29;20419;-81
2021/04/24 09:31:11;;;;;;;17.10;6.57;;;10.30;86.70;;;;;;4959536;29;20434;-79
2021/04/24 09:33:37;;;;;;;11.83;5.70;;;10.40;86.70;;;;;;4942006;29;20421;-79
2021/04/24 09:36:06;;;;;;;11.07;5.70;;;10.40;87.40;;;;;;4941204;29;20538;-78
2021/04/24 09:38:35;;;;;;;11.00;6.90;;;10.40;88.00;;;;;;4942269;29;20438;-79
2021/04/24 09:41:25;;;;;;;13.07;6.37;;;10.30;86.80;;;;;;4939907;29;20488;-79
2021/04/24 09:43:57;;;;;;;9.77;6.07;;;10.10;87.00;;;;;;4936137;29;20477;-79
2021/04/24 09:46:45;;;;;;;15.07;6.33;;;10.00;87.10;;;;;;4936876;29;20426;-79
2021/04/24 09:49:29;;;;;;;12.07;5.83;;;10.00;87.00;;;;;;4939997;29;20406;-79
2021/04/24 09:51:58;;;;;;;11.00;6.33;;;10.10;86.80;;;;;;4957987;29;20498;-78
2021/04/24 09:54:42;;;;;;;13.87;6.30;;;10.20;86.50;;;;;;4939538;29;20423;-79
2021/04/24 09:57:11;;;;;;;14.83;6.63;;;10.50;86.00;;;;;;4958761;29;20438;-80
2021/04/24 10:00:02;;;;;;;11.90;5.37;;;10.70;87.30;;;;;;4938071;29;20482;-79
2021/04/24 10:02:38;;;;;;;12.30;6.10;;;10.80;86.70;;;;;;4936351;29;20966;-78
2021/04/24 10:05:11;;;;;;;11.90;6.47;;;10.90;85.80;;;;;;4935414;29;20533;-78
2021/04/24 10:07:45;;;;;;;9.50;5.80;;;10.80;84.70;;;;;;4937295;29;20423;-77
2021/04/24 10:10:30;;;;;;;12.80;5.37;;;10.60;85.40;;;;;;4936901;29;20443;-78
2021/04/24 10:12:57;;;;;;;14.80;6.40;;;10.50;86.00;;;;;;4938915;29;20426;-80
2021/04/24 10:15:46;;;;;;;13.03;5.53;;;10.70;87.20;;;;;;4945657;29;20427;-79
2021/04/24 10:18:14;;;;;;;10.27;5.73;;;10.70;85.50;;;;;;4944554;29;20442;-79
2021/04/24 10:20:43;;;;;;;12.63;6.17;;;10.50;85.10;;;;;;4942336;29;20435;-80
2021/04/24 10:23:10;;;;;;;24.13;7.00;;;10.50;86.50;;;;;;4942925;29;20430;-80
2021/04/24 10:25:36;;;;;;;16.07;5.60;;;10.50;86.90;;;;;;4939327;29;21105;-77
2021/04/24 10:28:03;;;;;;;14.43;6.30;;;10.50;86.00;;;;;;4938653;29;20797;-77
2021/04/24 10:30:29;;;;;;;13.93;5.43;;;10.60;87.60;;;;;;4938466;29;20514;-78
2021/04/24 10:32:55;;;;;;;18.83;5.63;;;10.50;86.60;;;;;;4939683;29;20835;-77
2021/04/24 10:35:23;;;;;;;19.40;6.80;;;10.50;86.20;;;;;;4938077;29;20195;-73
2021/04/24 10:37:51;;;;;;;10.27;6.00;;;10.70;87.50;;;;;;4936785;29;20424;-75
2021/04/24 10:40:17;;;;;;;11.93;6.10;;;10.80;86.00;;;;;;4936935;29;20505;-78
2021/04/24 10:42:49;;;;;;;12.23;6.40;;;10.80;85.80;;;;;;4918213;29;20438;-76
2021/04/24 10:45:33;;;;;;;16.63;5.70;;;11.00;86.00;;;;;;4936140;29;20551;-76
2021/04/24 10:47:59;;;;;;;15.50;6.27;;;11.10;84.60;;;;;;4933019;29;20993;-76
2021/04/24 10:50:43;;;;;;;9.30;5.27;;;11.20;82.90;;;;;;4935672;29;20509;-77
2021/04/24 10:53:27;;;;;;;12.60;6.27;;;11.30;83.30;;;;;;4950459;29;20410;-77
2021/04/24 10:55:54;;;;;;;12.10;5.23;;;11.30;83.70;;;;;;4933317;29;20442;-76
2021/04/24 10:58:32;;;;;;;10.57;5.70;;;11.70;83.00;;;;;;4934166;29;20926;-76
2021/04/24 11:01:06;;;;;;;12.13;5.90;;;11.90;81.90;;;;;;4937179;29;20442;-77
2021/04/24 11:03:41;;;;;;;14.10;6.33;;;11.80;81.80;;;;;;4937450;29;21035;-78
2021/04/24 11:06:16;;;;;;;13.40;5.80;;;11.80;83.30;;;;;;4938370;29;20422;-76
2021/04/24 11:08:43;;;;;;;9.70;5.57;;;11.50;82.80;;;;;;4951334;29;20422;-77
2021/04/24 11:11:15;;;;;;;13.00;6.80;;;11.30;82.50;;;;;;4936368;29;20434;-76
2021/04/24 11:13:49;;;;;;;12.97;5.70;;;11.10;83.40;;;;;;4936591;29;20419;-77
2021/04/24 11:16:18;;;;;;;9.67;4.80;;;11.00;82.70;;;;;;4937006;29;20559;-77
2021/04/24 11:18:47;;;;;;;8.50;4.57;;;11.10;82.70;;;;;;4928134;29;20414;-77
2021/04/24 11:21:16;;;;;;;9.00;5.20;;;11.10;81.80;;;;;;4941355;28;20533;-78
2021/04/24 11:23:43;;;;;;;12.10;5.57;;;11.20;81.30;;;;;;4937125;29;20427;-76
2021/04/24 11:26:20;;;;;;;9.40;5.07;;;11.10;81.00;;;;;;4953166;28;20899;-77
2021/04/24 11:29:07;;;;;;;9.27;5.40;;;11.10;81.90;;;;;;4936799;29;21071;-77
2021/04/24 11:31:53;;;;;;;9.33;5.70;;;11.30;82.80;;;;;;4940952;29;20502;-77
2021/04/24 11:34:35;;;;;;;12.57;5.03;;;11.10;82.00;;;;;;4954933;28;20425;-77
2021/04/24 11:37:18;;;;;;;9.37;4.77;;;11.00;82.10;;;;;;4944226;28;20413;-77
2021/04/24 11:40:11;;;;;;;10.30;5.07;;;10.80;82.70;;;;;;4955503;28;20428;-76
2021/04/24 11:43:01;;;;;;;10.60;5.23;;;10.90;83.50;;;;;;4926887;28;20477;-77
2021/04/24 11:45:46;;;;;;;11.93;5.47;;;11.10;82.50;;;;;;4926778;29;20533;-75
2021/04/24 11:48:12;;;;;;;16.10;6.07;;;11.20;82.90;;;;;;4928564;29;20430;-76
2021/04/24 11:50:41;;;;;;;13.17;5.90;;;11.30;81.20;;;;;;4936045;29;20439;-77
2021/04/24 11:53:07;;;;;;;10.60;5.37;;;11.40;81.70;;;;;;4936073;29;20427;-78
2021/04/24 11:55:33;;;;;;;9.10;4.93;;;11.30;80.60;;;;;;4937943;28;20419;-76
2021/04/24 11:58:09;;;;;;;10.80;4.50;;;11.50;81.20;;;;;;4945453;29;20457;-76
2021/04/24 12:00:36;;;;;;;10.73;5.13;;;12.00;80.40;;;;;;4942793;28;20458;-79
2021/04/24 12:03:03;;;;;;;7.53;4.60;;;12.20;78.30;;;;;;4936742;29;20462;-78
2021/04/24 12:05:52;;;;;;;11.33;5.30;;;12.50;78.90;;;;;;4936895;29;20550;-77
2021/04/24 12:08:22;;;;;;;8.83;4.20;;;12.70;77.00;;;;;;4936245;29;20451;-77
2021/04/24 12:10:49;;;;;;;8.43;4.63;;;12.90;78.00;;;;;;4937389;29;20438;-78
2021/04/24 12:13:14;;;;;;;10.03;5.03;;;13.00;76.80;;;;;;4959757;23;20514;-73
2021/04/24 12:15:44;;;;;;;9.77;4.20;;;13.20;78.80;;;;;;4941617;29;20423;-73
2021/04/24 12:18:09;;;;;;;7.40;4.43;;;13.60;77.80;;;;;;4953598;28;20238;-74
2021/04/24 12:20:37;;;;;;;9.93;4.77;;;13.60;76.40;;;;;;4954627;28;20434;-74
2021/04/24 12:23:09;;;;;;;8.20;4.97;;;13.20;77.90;;;;;;4955285;28;20201;-74
2021/04/24 12:25:37;;;;;;;15.03;4.70;;;12.90;77.60;;;;;;4954750;28;20446;-73
2021/04/24 12:28:05;;;;;;;6.50;4.57;;;12.70;79.10;;;;;;4954616;28;20418;-74
2021/04/24 12:30:40;;;;;;;12.50;6.00;;;12.60;79.10;;;;;;4955209;28;20418;-74
2021/04/24 12:33:11;;;;;;;14.37;6.13;;;12.30;79.10;;;;;;4955026;28;20414;-74
2021/04/24 12:35:40;;;;;;;7.00;4.10;;;12.00;77.60;;;;;;4955038;28;20448;-73
2021/04/24 12:38:07;;;;;;;8.37;4.10;;;12.00;78.00;;;;;;4955891;28;20422;-73
2021/04/24 12:40:39;;;;;;;8.53;4.40;;;12.20;78.40;;;;;;4958469;28;20991;-74
2021/04/24 12:43:16;;;;;;;10.60;4.77;;;12.20;80.20;;;;;;4956092;28;20423;-74
2021/04/24 12:45:45;;;;;;;10.43;4.70;;;12.10;79.60;;;;;;4956522;29;20470;-74
2021/04/24 12:48:14;;;;;;;9.83;4.50;;;11.90;80.40;;;;;;4956472;29;20419;-74
2021/04/24 12:50:41;;;;;;;7.43;4.10;;;11.70;80.70;;;;;;4961201;28;20468;-75